Time;durP1;ratioP1;P1;durP2;ratioP2;P2;SDS_P1;SDS_P2;PMS_P1;PMS_P2;Temp;Humidity;BMP_temperature;BMP_pressure;BME280_temperature;BME280_humidity;BME280_pressure;Samples;Min_cycle;Max_cycle;Signal;HPM_P1;HPM_P2
2024/03/11 00:00:53;;;;;;;3.08;1.08;;;;;;;;;;5037944;28;20079;-59
2024/03/11 00:03:19;;;;;;;1.58;0.80;;;;;;;;;;5036701;28;20049;-60
2024/03/11 00:05:46;;;;;;;2.10;0.98;;;;;;;;;;5038220;28;20602;-59
2024/03/11 00:08:16;;;;;;;0.80;0.50;;;;;;;;;;5034456;28;20091;-58
2024/03/11 00:10:44;;;;;;;1.73;0.88;;;;;;;;;;5034174;28;20065;-59
2024/03/11 00:13:16;;;;;;;1.52;0.88;;;;;;;;;;5048522;28;20203;-58
2024/03/11 00:15:44;;;;;;;0.88;0.52;;;;;;;;;;5045963;28;20118;-61
2024/03/11 00:18:12;;;;;;;1.38;0.60;;;;;;;;;;5047442;28;20057;-58
2024/03/11 00:20:40;;;;;;;1.55;0.68;;;;;;;;;;5052850;28;20041;-58
2024/03/11 00:23:07;;;;;;;0.70;0.60;;;;;;;;;;5052985;28;20483;-56
2024/03/11 00:25:35;;;;;;;1.10;0.60;;;;;;;;;;5052456;28;20131;-59
2024/03/11 00:28:02;;;;;;;1.20;0.60;;;;;;;;;;5052480;28;20076;-57
2024/03/11 00:30:30;;;;;;;1.23;0.60;;;;;;;;;;5044744;28;20641;-60
2024/03/11 00:32:59;;;;;;;1.50;0.70;;;;;;;;;;5052995;28;20056;-59
2024/03/11 00:35:26;;;;;;;0.73;0.50;;;;;;;;;;5050806;28;20064;-58
2024/03/11 00:37:53;;;;;;;0.88;0.50;;;;;;;;;;5048538;28;20069;-59
2024/03/11 00:40:20;;;;;;;1.50;0.75;;;;;;;;;;5047158;28;20064;-59
2024/03/11 00:42:47;;;;;;;0.70;0.55;;;;;;;;;;5052374;28;20504;-58
2024/03/11 00:45:14;;;;;;;1.63;0.65;;;;;;;;;;5051460;28;20126;-58
2024/03/11 00:47:42;;;;;;;1.05;0.60;;;;;;;;;;5049788;28;20048;-59
2024/03/11 00:50:12;;;;;;;1.60;0.68;;;;;;;;;;5049593;28;20055;-57
2024/03/11 00:52:39;;;;;;;0.98;0.57;;;;;;;;;;5052559;28;20041;-56
2024/03/11 00:55:08;;;;;;;1.95;0.80;;;;;;;;;;5052566;28;20045;-59
2024/03/11 00:57:35;;;;;;;1.92;0.77;;;;;;;;;;5052406;28;20136;-58
2024/03/11 01:00:04;;;;;;;2.35;1.10;;;;;;;;;;5052253;28;20159;-55
2024/03/11 01:02:32;;;;;;;1.85;1.00;;;;;;;;;;5052352;28;20053;-57
2024/03/11 01:05:00;;;;;;;1.13;0.70;;;;;;;;;;5052193;28;20057;-59
2024/03/11 01:07:27;;;;;;;1.67;0.70;;;;;;;;;;5051724;28;20128;-57
2024/03/11 01:09:54;;;;;;;1.25;0.90;;;;;;;;;;5052334;28;20048;-56
2024/03/11 01:12:22;;;;;;;2.97;1.35;;;;;;;;;;5052725;28;20045;-58
2024/03/11 01:14:51;;;;;;;2.05;0.93;;;;;;;;;;5045681;28;20050;-58
2024/03/11 01:17:18;;;;;;;2.10;1.08;;;;;;;;;;5032656;28;20056;-61
2024/03/11 01:19:45;;;;;;;2.72;0.88;;;;;;;;;;5047150;28;20477;-60
2024/03/11 01:22:13;;;;;;;2.35;0.90;;;;;;;;;;5051839;28;20056;-59
2024/03/11 01:24:40;;;;;;;1.65;0.90;;;;;;;;;;5051478;28;20056;-61
2024/03/11 01:27:10;;;;;;;2.35;1.05;;;;;;;;;;5052231;28;20436;-61
2024/03/11 01:29:39;;;;;;;1.88;0.80;;;;;;;;;;5052237;28;20119;-60
2024/03/11 01:32:07;;;;;;;1.45;0.70;;;;;;;;;;5051872;28;20076;-60
2024/03/11 01:34:34;;;;;;;1.33;0.65;;;;;;;;;;5051730;28;20076;-61
2024/03/11 01:37:01;;;;;;;1.05;0.57;;;;;;;;;;5051288;28;20224;-59
2024/03/11 01:39:42;;;;;;;1.33;0.65;;;;;;;;;;5051799;28;20126;-59
2024/03/11 01:42:10;;;;;;;1.33;0.70;;;;;;;;;;5050375;28;20048;-59
2024/03/11 01:44:38;;;;;;;1.35;0.70;;;;;;;;;;5050958;28;20132;-60
2024/03/11 01:47:09;;;;;;;1.23;0.73;;;;;;;;;;5050827;28;20061;-60
2024/03/11 01:49:37;;;;;;;1.05;0.60;;;;;;;;;;5051369;28;20072;-60
2024/03/11 01:52:07;;;;;;;1.40;0.60;;;;;;;;;;5051440;28;20060;-61
2024/03/11 01:54:38;;;;;;;1.70;0.60;;;;;;;;;;5051465;28;20496;-59
2024/03/11 01:57:05;;;;;;;;;;;;;;;;;;5051511;28;20488;-58
2024/03/11 01:59:35;;;;;;;0.82;0.57;;;;;;;;;;5051261;28;19921;-59
2024/03/11 02:02:02;;;;;;;1.35;0.60;;;;;;;;;;5051083;28;20130;-61
2024/03/11 02:04:30;;;;;;;1.88;0.70;;;;;;;;;;5050932;28;20048;-58
2024/03/11 02:06:57;;;;;;;3.38;1.20;;;;;;;;;;5050608;28;20045;-60
2024/03/11 02:09:24;;;;;;;2.75;1.17;;;;;;;;;;5050765;28;20080;-58
2024/03/11 02:11:52;;;;;;;1.95;0.93;;;;;;;;;;5051066;28;20049;-61
2024/03/11 02:14:19;;;;;;;2.70;1.20;;;;;;;;;;5050858;28;20045;-57
2024/03/11 02:16:47;;;;;;;4.18;1.42;;;;;;;;;;5050909;28;20053;-59
2024/03/11 02:19:17;;;;;;;2.00;1.02;;;;;;;;;;5050912;28;20049;-57
2024/03/11 02:21:46;;;;;;;1.83;0.80;;;;;;;;;;5050854;28;20045;-58
2024/03/11 02:24:15;;;;;;;3.13;0.85;;;;;;;;;;5050818;28;20139;-60
2024/03/11 02:26:45;;;;;;;1.83;0.80;;;;;;;;;;5050728;28;20162;-60
2024/03/11 02:29:16;;;;;;;2.87;1.10;;;;;;;;;;5050682;28;20103;-59
2024/03/11 02:31:43;;;;;;;3.63;1.10;;;;;;;;;;5050594;28;20725;-61
2024/03/11 02:34:10;;;;;;;3.20;1.38;;;;;;;;;;5050709;28;20049;-60
2024/03/11 02:36:37;;;;;;;3.30;0.70;;;;;;;;;;5050897;28;20052;-59
2024/03/11 02:39:07;;;;;;;2.47;0.80;;;;;;;;;;5050214;28;20424;-59
2024/03/11 02:41:36;;;;;;;1.30;0.70;;;;;;;;;;5050198;28;20242;-59
2024/03/11 02:44:03;;;;;;;2.03;0.60;;;;;;;;;;5050052;28;20053;-59
2024/03/11 02:46:30;;;;;;;1.35;0.50;;;;;;;;;;5049868;28;20476;-58
2024/03/11 02:48:58;;;;;;;2.08;0.60;;;;;;;;;;5049885;28;20435;-57
2024/03/11 02:51:25;;;;;;;2.30;0.70;;;;;;;;;;5049852;28;20108;-59
2024/03/11 02:53:52;;;;;;;1.38;0.60;;;;;;;;;;5049685;28;20048;-59
2024/03/11 02:56:19;;;;;;;1.75;0.70;;;;;;;;;;5049859;28;20493;-56
2024/03/11 02:58:48;;;;;;;1.60;0.70;;;;;;;;;;5049842;28;20048;-57
2024/03/11 03:01:14;;;;;;;1.88;0.70;;;;;;;;;;5049727;28;20048;-58
2024/03/11 03:03:41;;;;;;;3.17;0.98;;;;;;;;;;5049863;28;20538;-58
2024/03/11 03:06:08;;;;;;;2.55;0.80;;;;;;;;;;5041002;28;20056;-59
2024/03/11 03:08:35;;;;;;;2.83;1.20;;;;;;;;;;5049623;28;20126;-61
2024/03/11 03:11:03;;;;;;;2.70;0.80;;;;;;;;;;5049472;28;20068;-60
2024/03/11 03:13:30;;;;;;;1.95;0.70;;;;;;;;;;5049708;28;20045;-59
2024/03/11 03:15:58;;;;;;;1.63;0.60;;;;;;;;;;5049123;28;20081;-59
2024/03/11 03:18:25;;;;;;;1.85;0.60;;;;;;;;;;5041204;28;20144;-60
2024/03/11 03:20:52;;;;;;;1.00;0.47;;;;;;;;;;5049291;28;20037;-57
2024/03/11 03:23:19;;;;;;;0.93;0.47;;;;;;;;;;5049200;28;20049;-58
2024/03/11 03:25:46;;;;;;;1.15;0.60;;;;;;;;;;5049108;28;20044;-56
2024/03/11 03:28:13;;;;;;;1.33;0.68;;;;;;;;;;5045567;28;20508;-58
2024/03/11 03:30:40;;;;;;;0.77;0.50;;;;;;;;;;5042778;28;20049;-60
2024/03/11 03:33:09;;;;;;;0.70;0.60;;;;;;;;;;5049092;28;20053;-58
2024/03/11 03:35:36;;;;;;;1.50;0.57;;;;;;;;;;5048665;28;20049;-59
2024/03/11 03:38:04;;;;;;;1.38;0.55;;;;;;;;;;5049177;28;20747;-59
2024/03/11 03:40:31;;;;;;;1.60;0.63;;;;;;;;;;5048937;28;20079;-57
2024/03/11 03:42:58;;;;;;;0.95;0.60;;;;;;;;;;5049573;28;20401;-58
2024/03/11 03:45:25;;;;;;;1.52;0.80;;;;;;;;;;5048939;28;20132;-58
2024/03/11 03:47:52;;;;;;;2.70;1.10;;;;;;;;;;5048340;28;20056;-61
2024/03/11 03:50:21;;;;;;;1.85;0.90;;;;;;;;;;5049060;28;20056;-61
2024/03/11 03:52:48;;;;;;;3.30;0.90;;;;;;;;;;5049022;28;20053;-57
2024/03/11 03:55:15;;;;;;;1.80;0.80;;;;;;;;;;5048347;28;20057;-57
2024/03/11 03:57:44;;;;;;;3.65;1.45;;;;;;;;;;5048448;28;20130;-59
2024/03/11 04:00:16;;;;;;;2.90;1.20;;;;;;;;;;5048793;28;20141;-60
2024/03/11 04:02:43;;;;;;;2.33;0.90;;;;;;;;;;5048618;28;20473;-59
2024/03/11 04:05:10;;;;;;;2.45;0.98;;;;;;;;;;5049169;28;20128;-58
2024/03/11 04:07:40;;;;;;;2.20;0.90;;;;;;;;;;5048546;28;20084;-60
2024/03/11 04:10:11;;;;;;;3.10;0.88;;;;;;;;;;5048857;28;20049;-59
2024/03/11 04:12:39;;;;;;;2.42;1.00;;;;;;;;;;5048956;28;20048;-59
2024/03/11 04:15:09;;;;;;;4.75;1.15;;;;;;;;;;5048575;28;20045;-61
2024/03/11 04:17:36;;;;;;;3.10;1.13;;;;;;;;;;5048336;28;20085;-60
2024/03/11 04:20:11;;;;;;;2.75;1.02;;;;;;;;;;5048621;28;20172;-60
2024/03/11 04:22:41;;;;;;;5.30;1.50;;;;;;;;;;5048874;28;20061;-60
2024/03/11 04:25:11;;;;;;;4.45;1.52;;;;;;;;;;5049087;28;20080;-59
2024/03/11 04:27:37;;;;;;;3.85;1.30;;;;;;;;;;5048049;28;20045;-59
2024/03/11 04:30:05;;;;;;;4.90;1.80;;;;;;;;;;5048286;28;20049;-58
2024/03/11 04:32:32;;;;;;;5.68;1.80;;;;;;;;;;5048583;28;20556;-61
2024/03/11 04:34:59;;;;;;;5.13;1.77;;;;;;;;;;5048409;28;20057;-58
2024/03/11 04:37:26;;;;;;;4.10;1.80;;;;;;;;;;5047961;28;20115;-59
2024/03/11 04:39:54;;;;;;;4.88;2.00;;;;;;;;;;5048598;28;20492;-59
2024/03/11 04:42:21;;;;;;;5.22;1.92;;;;;;;;;;5048619;28;20041;-58
2024/03/11 04:44:49;;;;;;;6.47;2.03;;;;;;;;;;5048580;28;20420;-58
2024/03/11 04:47:16;;;;;;;4.65;1.90;;;;;;;;;;5047664;28;20045;-59
2024/03/11 04:49:43;;;;;;;3.75;2.00;;;;;;;;;;5048146;28;20048;-58
2024/03/11 04:52:12;;;;;;;5.95;2.05;;;;;;;;;;5048077;28;20041;-60
2024/03/11 04:54:38;;;;;;;4.97;2.00;;;;;;;;;;5048003;28;20053;-59
2024/03/11 04:57:07;;;;;;;4.72;2.30;;;;;;;;;;5048063;28;20053;-60
2024/03/11 04:59:34;;;;;;;7.05;2.30;;;;;;;;;;5051004;28;20421;-60
2024/03/11 05:02:01;;;;;;;3.95;1.50;;;;;;;;;;5051809;28;20042;-59
2024/03/11 05:04:28;;;;;;;6.63;2.00;;;;;;;;;;5051487;28;20084;-59
2024/03/11 05:06:55;;;;;;;5.93;2.00;;;;;;;;;;5051380;28;20048;-59
2024/03/11 05:09:21;;;;;;;7.10;2.13;;;;;;;;;;5051311;28;20683;-58
2024/03/11 05:11:49;;;;;;;5.95;2.38;;;;;;;;;;5051780;28;20128;-59
2024/03/11 05:14:17;;;;;;;7.90;3.17;;;;;;;;;;5043473;28;20140;-60
2024/03/11 05:16:44;;;;;;;6.93;3.40;;;;;;;;;;5051240;28;20044;-59
2024/03/11 05:19:11;;;;;;;6.80;2.97;;;;;;;;;;5051424;28;20151;-58
2024/03/11 05:21:38;;;;;;;10.68;3.45;;;;;;;;;;5046367;28;20049;-59
2024/03/11 05:24:06;;;;;;;10.88;3.28;;;;;;;;;;5050132;28;20059;-61
2024/03/11 05:26:33;;;;;;;5.93;2.35;;;;;;;;;;5050986;28;20177;-60
2024/03/11 05:29:00;;;;;;;6.03;2.50;;;;;;;;;;5051406;28;20532;-59
2024/03/11 05:31:28;;;;;;;6.32;2.53;;;;;;;;;;5051179;28;20088;-58
2024/03/11 05:33:55;;;;;;;5.45;2.10;;;;;;;;;;5051163;28;20064;-59
2024/03/11 05:36:22;;;;;;;4.97;2.28;;;;;;;;;;5049936;28;20053;-59
2024/03/11 05:38:49;;;;;;;3.58;1.95;;;;;;;;;;5051083;28;20048;-59
2024/03/11 05:41:16;;;;;;;8.20;2.03;;;;;;;;;;5051203;28;20518;-59
2024/03/11 05:43:43;;;;;;;3.20;1.73;;;;;;;;;;5046518;28;20085;-60
2024/03/11 05:46:10;;;;;;;5.50;2.15;;;;;;;;;;5049362;28;20088;-58
2024/03/11 05:48:38;;;;;;;5.57;2.42;;;;;;;;;;5051064;28;20524;-60
2024/03/11 05:51:05;;;;;;;6.45;2.42;;;;;;;;;;5050675;28;20528;-59
2024/03/11 05:53:34;;;;;;;6.15;2.38;;;;;;;;;;5051211;28;20127;-58
2024/03/11 05:56:02;;;;;;;5.15;2.20;;;;;;;;;;5050630;28;20128;-58
2024/03/11 05:58:29;;;;;;;3.70;1.95;;;;;;;;;;5050953;28;20453;-58
2024/03/11 06:00:56;;;;;;;5.93;2.15;;;;;;;;;;5050989;28;20057;-59
2024/03/11 06:03:23;;;;;;;5.68;2.55;;;;;;;;;;5050691;28;20045;-57
2024/03/11 06:05:51;;;;;;;4.90;1.90;;;;;;;;;;5050821;28;20052;-57
2024/03/11 06:08:20;;;;;;;8.65;2.03;;;;;;;;;;5050921;28;20056;-58
2024/03/11 06:10:47;;;;;;;5.15;1.98;;;;;;;;;;5050749;28;20509;-61
2024/03/11 06:13:15;;;;;;;4.50;1.85;;;;;;;;;;5050633;28;20049;-60
2024/03/11 06:15:42;;;;;;;5.63;2.15;;;;;;;;;;5050575;28;20056;-59
2024/03/11 06:18:08;;;;;;;3.97;1.83;;;;;;;;;;5047829;28;20053;-60
2024/03/11 06:20:35;;;;;;;4.22;2.10;;;;;;;;;;5039860;28;20041;-59
2024/03/11 06:23:04;;;;;;;3.70;2.33;;;;;;;;;;5050391;28;20056;-60
2024/03/11 06:25:32;;;;;;;8.20;2.17;;;;;;;;;;5050395;28;20704;-60
2024/03/11 06:27:58;;;;;;;4.80;1.90;;;;;;;;;;5043935;28;20477;-57
2024/03/11 06:30:25;;;;;;;4.30;1.85;;;;;;;;;;5040336;28;20045;-59
2024/03/11 06:32:52;;;;;;;3.25;2.03;;;;;;;;;;5044169;28;20045;-59
2024/03/11 06:35:19;;;;;;;4.47;2.00;;;;;;;;;;5050614;28;20049;-59
2024/03/11 06:37:46;;;;;;;6.30;1.83;;;;;;;;;;5050213;28;20560;-59
2024/03/11 06:40:17;;;;;;;4.35;2.05;;;;;;;;;;5047320;28;20048;-58
2024/03/11 06:42:45;;;;;;;5.70;2.45;;;;;;;;;;5046866;28;20131;-57
2024/03/11 06:45:12;;;;;;;6.20;2.47;;;;;;;;;;5042822;28;20045;-59
2024/03/11 06:47:40;;;;;;;6.47;2.05;;;;;;;;;;5042019;28;20492;-59
2024/03/11 06:50:09;;;;;;;4.20;2.20;;;;;;;;;;5049801;28;20479;-57
2024/03/11 06:52:36;;;;;;;5.00;2.03;;;;;;;;;;5049960;28;20053;-60
2024/03/11 06:55:04;;;;;;;5.07;1.90;;;;;;;;;;5050009;28;20499;-60
2024/03/11 06:57:34;;;;;;;7.30;2.58;;;;;;;;;;5049593;28;20136;-60
2024/03/11 07:00:01;;;;;;;4.15;1.75;;;;;;;;;;5050128;28;20128;-56
2024/03/11 07:02:28;;;;;;;6.65;2.03;;;;;;;;;;5046355;28;20481;-58
2024/03/11 07:04:56;;;;;;;3.88;1.65;;;;;;;;;;5042972;28;20044;-57
2024/03/11 07:07:25;;;;;;;3.97;1.52;;;;;;;;;;5045713;28;20726;-56
2024/03/11 07:09:52;;;;;;;2.47;1.17;;;;;;;;;;5045314;28;20504;-59
2024/03/11 07:12:20;;;;;;;3.08;1.25;;;;;;;;;;5038526;28;20049;-58
2024/03/11 07:14:48;;;;;;;3.10;1.30;;;;;;;;;;5049769;28;20053;-60
2024/03/11 07:17:15;;;;;;;6.18;1.30;;;;;;;;;;5042277;28;20048;-59
2024/03/11 07:19:42;;;;;;;3.58;1.30;;;;;;;;;;5049354;28;20055;-59
2024/03/11 07:22:09;;;;;;;3.03;1.10;;;;;;;;;;5048453;28;20048;-59
2024/03/11 07:24:37;;;;;;;2.50;1.45;;;;;;;;;;5049245;28;20056;-59
2024/03/11 07:27:04;;;;;;;3.83;1.10;;;;;;;;;;5040354;28;20052;-61
2024/03/11 07:29:31;;;;;;;2.65;1.30;;;;;;;;;;5042779;28;20049;-57
2024/03/11 07:31:59;;;;;;;2.53;0.75;;;;;;;;;;5038204;28;20048;-60
2024/03/11 07:34:26;;;;;;;2.28;1.10;;;;;;;;;;5041454;28;20051;-61
2024/03/11 07:36:55;;;;;;;2.42;1.02;;;;;;;;;;5035678;28;20128;-58
2024/03/11 07:39:24;;;;;;;1.50;0.90;;;;;;;;;;5039923;28;20401;-58
2024/03/11 07:41:51;;;;;;;2.72;1.00;;;;;;;;;;5045200;28;20361;-59
2024/03/11 07:44:18;;;;;;;3.55;1.10;;;;;;;;;;5047342;28;20590;-59
2024/03/11 07:46:46;;;;;;;2.10;1.05;;;;;;;;;;5042994;28;20046;-59
2024/03/11 07:49:14;;;;;;;2.38;1.20;;;;;;;;;;5045856;28;20056;-58
2024/03/11 07:51:42;;;;;;;3.78;1.30;;;;;;;;;;5038532;28;20096;-59
2024/03/11 07:54:11;;;;;;;4.38;1.10;;;;;;;;;;5039561;28;20055;-59
2024/03/11 07:56:38;;;;;;;1.98;1.00;;;;;;;;;;5036074;28;20045;-58
2024/03/11 07:59:05;;;;;;;1.83;1.00;;;;;;;;;;5046096;28;20493;-60
2024/03/11 08:01:32;;;;;;;3.65;1.42;;;;;;;;;;5048259;28;20053;-59
2024/03/11 08:04:00;;;;;;;3.85;1.45;;;;;;;;;;5038821;28;20433;-60
2024/03/11 08:06:30;;;;;;;3.80;1.38;;;;;;;;;;5034467;28;20041;-58
2024/03/11 08:08:57;;;;;;;3.33;1.47;;;;;;;;;;5036077;28;22228;-57
2024/03/11 08:11:24;;;;;;;2.90;1.20;;;;;;;;;;5035145;28;20048;-59
2024/03/11 08:13:51;;;;;;;2.53;1.15;;;;;;;;;;5039412;28;20064;-58
2024/03/11 08:16:18;;;;;;;3.10;1.00;;;;;;;;;;5029080;28;20050;-60
2024/03/11 08:18:45;;;;;;;2.75;0.98;;;;;;;;;;5033063;28;20096;-59
2024/03/11 08:21:12;;;;;;;2.47;1.10;;;;;;;;;;5033503;28;20061;-57
2024/03/11 08:23:40;;;;;;;2.42;1.05;;;;;;;;;;5037905;28;20063;-59
2024/03/11 08:26:08;;;;;;;2.67;1.20;;;;;;;;;;5048263;28;20150;-58
2024/03/11 08:28:38;;;;;;;1.92;0.93;;;;;;;;;;5048881;28;20472;-62
2024/03/11 08:31:07;;;;;;;2.95;1.10;;;;;;;;;;5048885;28;20420;-61
2024/03/11 08:33:34;;;;;;;2.28;1.13;;;;;;;;;;5051814;28;20080;-57
2024/03/11 08:36:03;;;;;;;15.05;2.22;;;;;;;;;;5045094;28;20080;-57
2024/03/11 08:38:30;;;;;;;8.32;2.30;;;;;;;;;;5045211;28;20135;-59
2024/03/11 08:40:58;;;;;;;6.32;1.50;;;;;;;;;;5051551;28;20057;-58
2024/03/11 08:43:26;;;;;;;5.72;1.33;;;;;;;;;;5047770;28;20065;-61
2024/03/11 08:45:52;;;;;;;6.50;1.60;;;;;;;;;;5047711;28;20053;-59
2024/03/11 08:48:19;;;;;;;3.22;1.13;;;;;;;;;;5047883;28;20045;-58
2024/03/11 08:50:48;;;;;;;3.42;0.93;;;;;;;;;;5049866;28;20049;-62
2024/03/11 08:53:15;;;;;;;2.70;1.02;;;;;;;;;;5036611;28;20267;-63
2024/03/11 08:55:42;;;;;;;1.98;1.00;;;;;;;;;;5038565;28;20440;-63
2024/03/11 08:58:12;;;;;;;3.05;1.10;;;;;;;;;;5044061;28;20084;-62
2024/03/11 09:00:39;;;;;;;1.10;0.95;;;;;;;;;;5042446;28;20057;-58
2024/03/11 09:03:06;;;;;;;2.15;0.95;;;;;;;;;;5042303;28;20052;-64
2024/03/11 09:05:33;;;;;;;3.45;0.90;;;;;;;;;;5040570;28;20044;-57
2024/03/11 09:08:03;;;;;;;3.22;1.00;;;;;;;;;;5035990;28;20385;-60
2024/03/11 09:10:30;;;;;;;2.08;0.80;;;;;;;;;;5042611;28;20083;-60
2024/03/11 09:12:58;;;;;;;1.35;0.80;;;;;;;;;;5043047;28;20052;-61
2024/03/11 09:15:27;;;;;;;2.60;0.90;;;;;;;;;;5047649;28;20069;-59
2024/03/11 09:17:56;;;;;;;1.90;0.80;;;;;;;;;;5045880;28;20091;-59
2024/03/11 09:20:27;;;;;;;1.77;0.90;;;;;;;;;;5041966;28;20098;-59
2024/03/11 09:22:56;;;;;;;2.38;0.70;;;;;;;;;;5044341;28;20493;-60
2024/03/11 09:25:24;;;;;;;4.20;1.35;;;;;;;;;;5047430;28;20080;-59
2024/03/11 09:27:53;;;;;;;3.70;1.10;;;;;;;;;;5042796;28;20581;-58
2024/03/11 09:30:20;;;;;;;4.65;1.90;;;;;;;;;;5050427;28;20041;-59
2024/03/11 09:32:50;;;;;;;2.92;1.02;;;;;;;;;;5042370;28;20068;-59
2024/03/11 09:35:17;;;;;;;3.17;1.00;;;;;;;;;;5052135;28;20064;-60
2024/03/11 09:37:46;;;;;;;3.88;0.98;;;;;;;;;;5049903;28;20332;-59
2024/03/11 09:40:16;;;;;;;3.25;1.20;;;;;;;;;;5049758;28;20052;-60
2024/03/11 09:42:46;;;;;;;2.60;1.02;;;;;;;;;;5050148;28;20127;-60
2024/03/11 09:45:17;;;;;;;3.17;1.00;;;;;;;;;;5050551;28;20057;-59
2024/03/11 09:47:51;;;;;;;1.95;0.80;;;;;;;;;;5050839;28;20056;-57
2024/03/11 09:50:26;;;;;;;1.88;0.88;;;;;;;;;;5050872;28;20063;-59
2024/03/11 09:52:58;;;;;;;1.80;0.90;;;;;;;;;;5051462;28;20045;-58
2024/03/11 09:55:28;;;;;;;2.25;0.90;;;;;;;;;;5042447;28;20131;-59
2024/03/11 09:57:59;;;;;;;2.70;1.00;;;;;;;;;;5041715;28;20495;-60
2024/03/11 10:00:27;;;;;;;;;;;;;;;;;;5038588;28;20461;-61
2024/03/11 10:02:59;;;;;;;2.25;1.05;;;;;;;;;;5047023;28;19958;-59
2024/03/11 10:05:30;;;;;;;3.03;0.98;;;;;;;;;;5043928;28;20099;-60
2024/03/11 10:07:58;;;;;;;4.03;1.10;;;;;;;;;;5048035;28;20067;-58
2024/03/11 10:10:26;;;;;;;2.63;1.02;;;;;;;;;;5048479;28;20128;-57
2024/03/11 10:12:54;;;;;;;2.05;1.33;;;;;;;;;;5050787;28;20052;-58
2024/03/11 10:15:27;;;;;;;2.47;1.10;;;;;;;;;;5048643;28;20053;-61
2024/03/11 10:18:01;;;;;;;2.08;0.90;;;;;;;;;;5050233;28;20098;-60
2024/03/11 10:20:34;;;;;;;2.65;1.00;;;;;;;;;;5035886;28;20045;-59
2024/03/11 10:23:06;;;;;;;1.77;0.98;;;;;;;;;;5033944;28;20065;-62
2024/03/11 10:25:34;;;;;;;2.72;1.60;;;;;;;;;;5036021;28;20575;-60
2024/03/11 10:28:03;;;;;;;1.73;0.70;;;;;;;;;;5042868;28;20041;-59
2024/03/11 10:30:31;;;;;;;0.93;0.70;;;;;;;;;;5042357;28;20059;-57
2024/03/11 10:33:01;;;;;;;1.77;0.80;;;;;;;;;;5047971;28;20185;-61
2024/03/11 10:35:33;;;;;;;1.90;1.00;;;;;;;;;;5037023;28;20520;-57
2024/03/11 10:38:08;;;;;;;1.98;0.82;;;;;;;;;;5036022;28;20301;-58
2024/03/11 10:40:38;;;;;;;1.13;0.60;;;;;;;;;;5033961;28;20107;-57
2024/03/11 10:43:20;;;;;;;1.10;0.70;;;;;;;;;;5038719;28;20040;-60
2024/03/11 10:45:48;;;;;;;1.25;0.70;;;;;;;;;;5042584;28;20128;-57
2024/03/11 10:48:16;;;;;;;2.00;0.77;;;;;;;;;;5034459;28;20072;-57
2024/03/11 10:50:44;;;;;;;1.38;0.90;;;;;;;;;;5042234;28;20141;-60
2024/03/11 10:53:19;;;;;;;1.63;0.85;;;;;;;;;;5047152;28;20541;-61
2024/03/11 10:55:53;;;;;;;1.63;1.00;;;;;;;;;;5040562;28;20119;-60
2024/03/11 10:58:25;;;;;;;2.00;0.70;;;;;;;;;;5043030;28;20060;-60
2024/03/11 11:00:54;;;;;;;2.13;0.98;;;;;;;;;;5044983;28;20139;-61
2024/03/11 11:03:23;;;;;;;2.83;0.80;;;;;;;;;;5048362;28;20049;-60
2024/03/11 11:06:01;;;;;;;1.13;0.70;;;;;;;;;;5043951;28;20053;-59
2024/03/11 11:08:31;;;;;;;2.70;1.25;;;;;;;;;;5048079;28;20045;-56
2024/03/11 11:10:59;;;;;;;0.88;0.57;;;;;;;;;;5047960;28;20075;-59
2024/03/11 11:13:29;;;;;;;1.63;0.73;;;;;;;;;;5042114;28;20076;-60
2024/03/11 11:15:58;;;;;;;2.45;0.80;;;;;;;;;;5039132;28;20048;-60
2024/03/11 11:18:27;;;;;;;2.25;0.90;;;;;;;;;;5043824;28;20502;-62
2024/03/11 11:20:56;;;;;;;4.63;1.02;;;;;;;;;;5049692;28;20489;-59
2024/03/11 11:23:27;;;;;;;1.92;0.80;;;;;;;;;;5049260;28;20084;-60
2024/03/11 11:25:55;;;;;;;1.27;0.70;;;;;;;;;;5049225;28;20052;-59
2024/03/11 11:28:28;;;;;;;2.90;1.17;;;;;;;;;;5047937;28;20056;-59
2024/03/11 11:31:12;;;;;;;2.05;0.90;;;;;;;;;;5049293;28;20150;-58
2024/03/11 11:33:53;;;;;;;1.88;0.77;;;;;;;;;;5048475;28;20041;-58
2024/03/11 11:36:39;;;;;;;;;;;;;;;;;;5049050;28;20124;-59
2024/03/11 11:39:33;;;;;;;1.60;0.70;;;;;;;;;;5047322;28;19927;-58
2024/03/11 11:42:02;;;;;;;2.58;1.30;;;;;;;;;;5036771;28;20099;-59
2024/03/11 11:44:51;;;;;;;1.55;0.85;;;;;;;;;;5042003;28;20080;-58
2024/03/11 11:47:21;;;;;;;1.30;0.70;;;;;;;;;;5047879;28;20056;-58
2024/03/11 11:49:48;;;;;;;2.30;0.80;;;;;;;;;;5047372;28;20052;-60
2024/03/11 11:52:15;;;;;;;3.22;0.80;;;;;;;;;;5039521;28;20470;-59
2024/03/11 11:54:44;;;;;;;1.60;0.77;;;;;;;;;;5047010;28;20041;-59
2024/03/11 11:57:15;;;;;;;1.85;0.77;;;;;;;;;;5046433;28;20053;-58
2024/03/11 11:59:44;;;;;;;2.00;0.80;;;;;;;;;;5035501;28;20128;-58
2024/03/11 12:02:19;;;;;;;1.60;0.80;;;;;;;;;;5048869;28;20045;-60
2024/03/11 12:04:49;;;;;;;1.40;0.70;;;;;;;;;;5048908;28;20484;-60
2024/03/11 12:07:22;;;;;;;1.20;0.63;;;;;;;;;;5044359;28;21100;-57
2024/03/11 12:09:52;;;;;;;1.45;0.70;;;;;;;;;;5039378;28;20068;-59
2024/03/11 12:12:28;;;;;;;2.97;0.90;;;;;;;;;;5044334;28;20048;-58
2024/03/11 12:14:56;;;;;;;1.45;0.80;;;;;;;;;;5041889;28;20567;-61
2024/03/11 12:17:24;;;;;;;1.70;0.90;;;;;;;;;;5037659;28;20057;-58
2024/03/11 12:20:12;;;;;;;2.08;0.80;;;;;;;;;;5041143;28;20468;-59
2024/03/11 12:22:39;;;;;;;1.52;0.88;;;;;;;;;;5034596;28;20040;-62
2024/03/11 12:25:13;;;;;;;1.48;0.75;;;;;;;;;;5044683;28;20132;-64
2024/03/11 12:27:41;;;;;;;2.13;0.95;;;;;;;;;;5044021;28;20053;-57
2024/03/11 12:30:16;;;;;;;3.00;1.08;;;;;;;;;;5048790;28;20131;-57
2024/03/11 12:32:45;;;;;;;2.55;0.90;;;;;;;;;;5042059;28;20055;-58
2024/03/11 12:35:14;;;;;;;2.25;0.98;;;;;;;;;;5052430;28;20049;-57
2024/03/11 12:37:42;;;;;;;1.70;0.70;;;;;;;;;;5041522;28;20056;-58
2024/03/11 12:40:18;;;;;;;1.75;0.70;;;;;;;;;;5050324;28;20122;-58
2024/03/11 12:42:47;;;;;;;1.35;0.90;;;;;;;;;;5046544;28;20102;-58
2024/03/11 12:45:15;;;;;;;1.35;0.90;;;;;;;;;;5049088;28;20083;-58
2024/03/11 12:47:43;;;;;;;1.25;0.80;;;;;;;;;;5049559;28;20455;-57
2024/03/11 12:50:11;;;;;;;1.45;0.80;;;;;;;;;;5051395;28;20055;-56
2024/03/11 12:52:40;;;;;;;1.55;0.75;;;;;;;;;;5052818;28;20044;-58
2024/03/11 12:55:12;;;;;;;2.80;0.90;;;;;;;;;;5045910;28;20140;-56
2024/03/11 12:57:39;;;;;;;1.90;0.82;;;;;;;;;;5044884;28;20072;-54
2024/03/11 13:00:08;;;;;;;1.65;0.70;;;;;;;;;;5049408;28;20126;-57
2024/03/11 13:02:36;;;;;;;1.42;0.65;;;;;;;;;;5048261;28;20079;-57
2024/03/11 13:05:13;;;;;;;2.28;0.80;;;;;;;;;;5050375;28;20076;-55
2024/03/11 13:07:39;;;;;;;0.90;0.63;;;;;;;;;;5046838;28;20488;-57
2024/03/11 13:10:08;;;;;;;1.30;0.70;;;;;;;;;;5052249;28;20572;-58
2024/03/11 13:12:36;;;;;;;3.10;0.70;;;;;;;;;;5041583;28;20064;-59
2024/03/11 13:15:08;;;;;;;2.13;0.93;;;;;;;;;;5043200;28;20050;-59
2024/03/11 13:17:35;;;;;;;0.95;0.70;;;;;;;;;;5050992;28;20053;-57
2024/03/11 13:20:07;;;;;;;1.65;0.60;;;;;;;;;;5042093;28;20057;-56
2024/03/11 13:22:36;;;;;;;1.58;0.77;;;;;;;;;;5048421;28;20052;-59
2024/03/11 13:25:04;;;;;;;1.83;1.08;;;;;;;;;;5036365;28;20566;-58
2024/03/11 13:27:31;;;;;;;1.30;0.70;;;;;;;;;;5042332;28;20049;-57
2024/03/11 13:30:00;;;;;;;1.95;0.80;;;;;;;;;;5046418;28;20045;-57
2024/03/11 13:32:26;;;;;;;1.58;0.88;;;;;;;;;;5047874;28;20044;-56
2024/03/11 13:34:55;;;;;;;2.05;0.70;;;;;;;;;;5052118;28;20044;-55
2024/03/11 13:37:22;;;;;;;2.40;0.63;;;;;;;;;;5050584;28;20658;-57
2024/03/11 13:39:49;;;;;;;3.10;0.85;;;;;;;;;;5050860;28;20052;-57
2024/03/11 13:42:17;;;;;;;2.58;0.80;;;;;;;;;;5046204;28;20045;-58
2024/03/11 13:44:44;;;;;;;1.67;0.68;;;;;;;;;;5051511;28;20045;-57
2024/03/11 13:47:14;;;;;;;0.90;0.60;;;;;;;;;;5039316;28;20064;-57
2024/03/11 13:49:42;;;;;;;4.78;1.67;;;;;;;;;;5049619;28;20052;-57
2024/03/11 13:52:09;;;;;;;1.65;0.85;;;;;;;;;;5048597;28;20049;-58
2024/03/11 13:54:36;;;;;;;3.67;1.13;;;;;;;;;;5039441;28;20048;-57
2024/03/11 13:57:04;;;;;;;1.40;0.80;;;;;;;;;;5047190;28;20520;-59
2024/03/11 13:59:32;;;;;;;1.00;0.55;;;;;;;;;;5049538;28;20053;-57
2024/03/11 14:01:59;;;;;;;0.90;0.60;;;;;;;;;;5051238;28;20045;-59
2024/03/11 14:04:27;;;;;;;0.90;0.50;;;;;;;;;;5051114;28;20052;-59
2024/03/11 14:06:54;;;;;;;1.65;0.70;;;;;;;;;;5050939;28;20596;-56
2024/03/11 14:09:23;;;;;;;2.13;0.70;;;;;;;;;;5051420;28;20110;-57
2024/03/11 14:11:52;;;;;;;1.48;0.60;;;;;;;;;;5038715;28;20126;-55
2024/03/11 14:14:19;;;;;;;1.42;0.60;;;;;;;;;;5048762;28;20493;-59
2024/03/11 14:16:48;;;;;;;1.95;0.95;;;;;;;;;;5050486;28;20055;-59
2024/03/11 14:19:17;;;;;;;1.25;0.70;;;;;;;;;;5051051;28;20080;-57
2024/03/11 14:21:47;;;;;;;2.13;0.98;;;;;;;;;;5050312;28;20056;-59
2024/03/11 14:24:15;;;;;;;0.95;0.60;;;;;;;;;;5050460;28;20126;-58
2024/03/11 14:26:43;;;;;;;2.65;0.70;;;;;;;;;;5050698;28;20519;-56
2024/03/11 14:29:12;;;;;;;1.20;0.65;;;;;;;;;;5051009;28;20424;-55
2024/03/11 14:31:40;;;;;;;1.15;0.60;;;;;;;;;;5050563;28;20688;-55
2024/03/11 14:34:08;;;;;;;1.15;0.47;;;;;;;;;;5045958;28;20128;-59
2024/03/11 14:36:35;;;;;;;1.50;0.80;;;;;;;;;;5049993;28;20364;-58
2024/03/11 14:39:08;;;;;;;2.15;0.80;;;;;;;;;;5049686;28;20052;-57
2024/03/11 14:41:38;;;;;;;1.27;0.65;;;;;;;;;;5049733;28;20060;-59
2024/03/11 14:44:06;;;;;;;0.63;0.50;;;;;;;;;;5047740;28;20056;-58
2024/03/11 14:46:33;;;;;;;0.70;0.52;;;;;;;;;;5044382;28;20099;-57
2024/03/11 14:48:59;;;;;;;1.02;0.70;;;;;;;;;;5050419;28;20051;-58
2024/03/11 14:51:27;;;;;;;0.70;0.45;;;;;;;;;;5050239;28;20049;-58